Time;durP1;ratioP1;P1;durP2;ratioP2;P2;SDS_P1;SDS_P2;PMS_P1;PMS_P2;Temp;Humidity;BMP_temperature;BMP_pressure;BME280_temperature;BME280_humidity;BME280_pressure;Samples;Min_cycle;Max_cycle;Signal;HPM_P1;HPM_P2
2022/04/10 00:08:21;;;;;;;11.43;6.60;;;;;;;8.75;100.00;99437.22;30832034;28;20052;-79
2022/04/10 00:23:23;;;;;;;13.37;6.53;;;;;;;8.68;100.00;99442.81;30836955;28;20050;-81
2022/04/10 00:38:25;;;;;;;12.13;7.43;;;;;;;8.61;100.00;99464.59;30823668;28;20078;-80
2022/04/10 00:53:27;;;;;;;19.17;7.93;;;;;;;8.69;100.00;99430.81;30839934;28;20137;-81
2022/04/10 01:08:29;;;;;;;17.53;8.90;;;;;;;8.70;100.00;99441.19;30845853;28;20051;-80
2022/04/10 01:23:31;;;;;;;18.13;7.30;;;;;;;8.70;100.00;99424.19;30823581;28;20089;-80
2022/04/10 01:38:33;;;;;;;18.50;8.60;;;;;;;8.63;100.00;99424.34;30835476;28;20078;-81
2022/04/10 01:53:35;;;;;;;11.87;6.70;;;;;;;8.58;100.00;99405.91;30851446;28;20094;-79
2022/04/10 02:08:41;;;;;;;12.17;7.50;;;;;;;8.58;100.00;99405.91;30867719;28;20051;-81
2022/04/10 02:23:43;;;;;;;;;;;;;;;8.52;100.00;99402.94;30876318;28;20035;-80
2022/04/10 02:38:45;;;;;;;20.17;9.07;;;;;;;8.46;100.00;99407.34;30928805;28;19926;-80
2022/04/10 02:53:59;;;;;;;15.57;7.33;;;;;;;8.39;100.00;99419.06;30854813;28;20065;-81
2022/04/10 03:09:02;;;;;;;13.37;8.30;;;;;;;8.34;100.00;99389.81;30848738;28;20086;-80
2022/04/10 03:24:04;;;;;;;16.40;7.53;;;;;;;8.33;100.00;99391.00;30827119;28;20047;-80
2022/04/10 03:39:06;;;;;;;17.43;7.43;;;;;;;8.38;100.00;99422.97;30834773;28;20055;-80
2022/04/10 03:54:08;;;;;;;15.33;7.17;;;;;;;8.49;100.00;99439.72;30854303;28;20087;-80
2022/04/10 04:09:11;;;;;;;23.80;7.97;;;;;;;8.76;100.00;99454.97;30820177;28;20048;-81
2022/04/10 04:24:13;;;;;;;21.00;7.20;;;;;;;9.09;100.00;99472.78;30868834;28;20518;-81
2022/04/10 04:39:15;;;;;;;15.10;6.63;;;;;;;9.61;100.00;99480.00;30833219;28;20047;-82
2022/04/10 04:54:21;;;;;;;;;;;;;;;9.95;100.00;99481.44;30838571;28;20053;-81
2022/04/10 05:09:23;;;;;;;14.93;7.13;;;;;;;10.15;100.00;99487.50;30830585;28;20287;-81
2022/04/10 05:24:25;;;;;;;14.27;6.50;;;;;;;10.45;100.00;99484.31;30829223;28;20070;-81
2022/04/10 05:39:27;;;;;;;13.83;6.77;;;;;;;10.81;97.61;99497.63;30824611;28;20082;-81
2022/04/10 05:54:29;;;;;;;16.37;7.13;;;;;;;11.33;94.39;99506.50;30833538;28;20400;-82
2022/04/10 06:09:31;;;;;;;18.10;7.37;;;;;;;12.25;91.95;99489.78;30838058;28;20070;-81
2022/04/10 06:24:33;;;;;;;13.50;6.30;;;;;;;12.64;88.70;99505.41;30819841;28;20059;-82
2022/04/10 06:39:35;;;;;;;16.63;6.80;;;;;;;13.51;84.88;99504.34;30853557;28;20046;-81
2022/04/10 06:54:37;;;;;;;18.20;6.20;;;;;;;14.10;81.61;99515.91;30850646;28;20541;-83
2022/04/10 07:09:39;;;;;;;17.37;6.37;;;;;;;14.41;79.28;99506.81;30868288;28;20047;-82
2022/04/10 07:24:41;;;;;;;11.13;5.53;;;;;;;14.76;77.52;99515.34;30844770;28;20061;-83
2022/04/10 07:39:43;;;;;;;11.37;5.63;;;;;;;15.72;72.08;99525.22;30848621;28;20054;-83
2022/04/10 07:54:45;;;;;;;12.10;6.20;;;;;;;16.17;71.26;99539.75;30837245;28;20118;-79
2022/04/10 08:09:47;;;;;;;9.67;4.97;;;;;;;16.74;68.65;99536.78;30804160;28;20137;-79
2022/04/10 08:24:49;;;;;;;13.13;4.97;;;;;;;17.02;64.75;99513.28;30842115;28;20137;-78
2022/04/10 08:39:51;;;;;;;8.73;5.07;;;;;;;17.31;64.67;99513.22;30817626;28;20189;-78
2022/04/10 08:54:53;;;;;;;8.18;4.35;;;;;;;17.64;62.97;99495.69;30811270;28;20414;-79
2022/04/10 09:09:57;;;;;;;6.75;3.90;;;;;;;17.44;61.87;99512.91;30801668;28;20050;-79
2022/04/10 09:25:16;;;;;;;10.95;4.95;;;;;;;18.19;58.44;99503.06;30820545;28;20061;-79
2022/04/10 09:40:26;;;;;;;10.07;4.85;;;;;;;20.68;51.41;99480.00;30850931;28;20058;-78
2022/04/10 09:55:36;;;;;;;6.72;3.42;;;;;;;21.47;45.21;99485.38;30828759;28;20082;-80
2022/04/10 10:10:39;;;;;;;11.40;3.80;;;;;;;21.04;46.13;99477.44;30807744;28;20077;-79
2022/04/10 10:26:15;;;;;;;5.40;3.13;;;;;;;19.77;45.76;99490.63;30844942;28;20051;-79
2022/04/10 10:41:17;;;;;;;7.30;3.13;;;;;;;19.63;46.41;99477.81;30841510;28;20082;-79
2022/04/10 10:56:22;;;;;;;8.20;4.03;;;;;;;20.15;45.98;99471.94;30864675;28;20051;-79
2022/04/10 11:11:44;;;;;;;10.05;3.95;;;;;;;20.05;46.06;99463.91;30828760;28;20075;-79
2022/04/10 11:27:11;;;;;;;12.95;3.88;;;;;;;20.17;45.41;99436.38;30856183;28;20082;-74
2022/04/10 11:42:19;;;;;;;4.20;2.72;;;;;;;23.58;40.15;99410.22;30845980;28;20138;-75
2022/04/10 11:57:21;;;;;;;6.63;3.10;;;;;;;21.64;40.65;99411.50;30838235;28;20058;-75
2022/04/10 12:12:39;;;;;;;6.20;2.50;;;;;;;20.32;42.74;99388.00;30818903;28;20512;-74
2022/04/10 12:27:43;;;;;;;7.20;3.13;;;;;;;19.89;42.57;99384.75;30863022;28;20059;-74
2022/04/10 12:42:45;;;;;;;5.43;2.60;;;;;;;19.81;42.75;99350.72;30800691;28;20050;-76
2022/04/10 12:58:03;;;;;;;5.93;2.75;;;;;;;19.84;42.89;99346.19;30839035;28;20843;-76
2022/04/10 13:13:08;;;;;;;7.88;2.88;;;;;;;19.77;43.75;99339.19;30831676;28;20742;-75
2022/04/10 13:28:10;;;;;;;6.38;3.17;;;;;;;19.64;43.98;99352.66;30836391;28;20142;-73
2022/04/10 13:43:14;;;;;;;6.85;3.13;;;;;;;19.29;46.49;99348.31;30828399;28;20058;-80
2022/04/10 13:58:16;;;;;;;6.85;3.47;;;;;;;18.85;47.20;99346.16;30839209;28;20063;-77
2022/04/10 14:13:18;;;;;;;9.15;3.58;;;;;;;18.87;48.04;99348.41;30885663;28;20381;-76
2022/04/10 14:28:20;;;;;;;6.88;3.25;;;;;;;18.66;48.86;99354.03;30863816;28;20062;-76
2022/04/10 14:43:22;;;;;;;7.80;3.30;;;;;;;18.37;49.78;99327.63;30824635;28;20051;-77
2022/04/10 14:58:24;;;;;;;5.45;3.42;;;;;;;18.10;50.83;99330.94;30855926;28;20051;-77
2022/04/10 15:13:28;;;;;;;8.70;3.70;;;;;;;17.89;51.28;99333.00;30870780;28;20059;-77
2022/04/10 15:28:30;;;;;;;8.73;4.10;;;;;;;17.67;51.69;99343.78;30863878;28;20051;-78
2022/04/10 15:43:32;;;;;;;5.43;2.58;;;;;;;17.44;52.14;99331.06;30816932;28;20077;-78
2022/04/10 15:58:35;;;;;;;7.88;3.70;;;;;;;17.10;53.47;99311.50;30875141;28;20411;-75
2022/04/10 16:13:37;;;;;;;6.40;3.15;;;;;;;16.69;54.51;99338.91;30884191;28;20115;-78
2022/04/10 16:44:00;;;;;;;6.10;3.23;;;;;;;16.01;57.18;99347.34;30850750;28;20097;-79
2022/04/10 16:59:03;;;;;;;7.43;3.00;;;;;;;15.75;58.60;99357.34;30851346;28;21565;-79
2022/04/10 17:14:07;;;;;;;5.97;3.73;;;;;;;15.44;60.32;99359.75;30859365;28;20058;-80
2022/04/10 17:29:09;;;;;;;8.67;3.60;;;;;;;15.19;61.76;99371.94;30818579;28;20057;-79
2022/04/10 17:44:13;;;;;;;7.70;3.10;;;;;;;14.92;62.59;99372.88;30817708;28;20105;-79
2022/04/10 17:59:15;;;;;;;8.97;3.07;;;;;;;14.60;63.58;99377.16;30828779;28;20050;-80
2022/04/10 18:14:17;;;;;;;6.97;3.03;;;;;;;14.32;62.60;99362.84;30841068;28;20044;-80
2022/04/10 18:29:20;;;;;;;6.40;3.27;;;;;;;14.04;62.63;99358.69;30823151;28;20053;-78
2022/04/10 18:44:23;;;;;;;4.97;3.30;;;;;;;13.82;62.15;99337.84;30851149;28;20059;-79
2022/04/10 18:59:25;;;;;;;6.27;3.10;;;;;;;13.61;61.37;99319.69;30821671;28;20059;-80
2022/04/10 19:14:27;;;;;;;4.67;3.07;;;;;;;13.49;60.96;99298.78;30827225;28;20097;-80
2022/04/10 19:29:30;;;;;;;15.33;3.43;;;;;;;13.31;61.10;99303.06;30834372;28;20047;-77
2022/04/10 19:44:32;;;;;;;9.30;4.03;;;;;;;13.12;61.75;99303.50;30847209;28;20062;-78
2022/04/10 19:59:34;;;;;;;5.87;2.97;;;;;;;12.95;62.07;99295.63;30843335;28;20067;-78
2022/04/10 20:14:36;;;;;;;9.53;3.03;;;;;;;12.84;62.80;99297.28;30821677;28;20430;-77
2022/04/10 20:29:38;;;;;;;13.23;3.77;;;;;;;12.75;63.04;99291.84;30853435;28;20093;-79
2022/04/10 20:44:40;;;;;;;7.07;3.17;;;;;;;12.57;63.29;99276.97;30854685;28;20055;-80
2022/04/10 20:59:42;;;;;;;6.47;2.93;;;;;;;12.50;62.62;99271.84;30832510;28;20213;-79
2022/04/10 21:14:44;;;;;;;6.17;3.77;;;;;;;12.37;62.61;99257.59;30834160;28;20142;-80
2022/04/10 21:29:46;;;;;;;6.80;3.20;;;;;;;12.18;63.07;99239.69;30842603;28;20106;-79
2022/04/10 21:44:48;;;;;;;8.73;3.73;;;;;;;12.16;62.25;99237.44;30833726;28;20093;-79
2022/04/10 21:59:50;;;;;;;9.30;3.40;;;;;;;11.92;63.13;99261.69;30822881;28;20055;-79
2022/04/10 22:14:52;;;;;;;22.03;3.67;;;;;;;11.66;64.77;99256.84;30848453;28;20391;-79
2022/04/10 22:29:54;;;;;;;5.00;3.20;;;;;;;11.51;65.19;99237.59;30844685;28;20051;-80
2022/04/10 22:44:56;;;;;;;10.27;3.47;;;;;;;11.38;66.32;99223.31;30847802;28;20054;-78
2022/04/10 22:59:58;;;;;;;7.13;3.53;;;;;;;11.20;67.44;99234.84;30869111;28;20530;-79
2022/04/10 23:15:00;;;;;;;5.43;2.90;;;;;;;10.98;68.44;99237.56;30851903;28;20055;-79
2022/04/10 23:30:03;;;;;;;9.23;3.50;;;;;;;10.76;69.58;99239.50;30860790;28;20594;-80
2022/04/10 23:45:06;;;;;;;12.93;3.27;;;;;;;10.66;70.90;99240.59;30835815;28;20055;-79
